Time;durP1;ratioP1;P1;durP2;ratioP2;P2;SDS_P1;SDS_P2;PMS_P1;PMS_P2;Temp;Humidity;BMP_temperature;BMP_pressure;BME280_temperature;BME280_humidity;BME280_pressure;Samples;Min_cycle;Max_cycle;Signal;HPM_P1;HPM_P2
2020/12/20 00:02:03;;;;;;;31.10;14.63;;;;;;;;;;5051020;28;20058;-50
2020/12/20 00:04:29;;;;;;;28.13;11.63;;;;;;;;;;5051318;28;20021;-50
2020/12/20 00:06:56;;;;;;;25.25;14.43;;;;;;;;;;5051133;28;20053;-50
2020/12/20 00:09:22;;;;;;;29.73;14.23;;;;;;;;;;5051137;28;20029;-50
2020/12/20 00:11:50;;;;;;;27.48;14.00;;;;;;;;;;5051090;28;20469;-49
2020/12/20 00:14:28;;;;;;;36.17;17.08;;;;;;;;;;5049754;28;20033;-49
2020/12/20 00:17:03;;;;;;;34.20;15.65;;;;;;;;;;5050992;28;20033;-49
2020/12/20 00:19:30;;;;;;;21.55;13.68;;;;;;;;;;5051001;28;20052;-49
2020/12/20 00:22:00;;;;;;;29.13;14.50;;;;;;;;;;5049653;28;20086;-49
2020/12/20 00:24:27;;;;;;;34.13;13.43;;;;;;;;;;5050982;28;20489;-49
2020/12/20 00:26:53;;;;;;;22.67;13.00;;;;;;;;;;5053168;28;20489;-49
2020/12/20 00:29:20;;;;;;;19.63;11.15;;;;;;;;;;5054597;28;20045;-49
2020/12/20 00:31:46;;;;;;;33.22;14.15;;;;;;;;;;5054060;28;20096;-50
2020/12/20 00:34:12;;;;;;;25.48;12.82;;;;;;;;;;5053436;28;20025;-50
2020/12/20 00:36:42;;;;;;;63.60;14.57;;;;;;;;;;5053718;28;20663;-50
2020/12/20 00:39:08;;;;;;;45.92;18.00;;;;;;;;;;5053722;28;20100;-50
2020/12/20 00:41:34;;;;;;;22.40;11.32;;;;;;;;;;5053798;28;20052;-50
2020/12/20 00:44:00;;;;;;;22.98;13.38;;;;;;;;;;5053780;28;20109;-50
2020/12/20 00:46:27;;;;;;;21.77;12.38;;;;;;;;;;5053798;28;20017;-50
2020/12/20 00:48:53;;;;;;;17.65;12.48;;;;;;;;;;5054300;28;20025;-50
2020/12/20 00:51:19;;;;;;;24.50;12.38;;;;;;;;;;5054072;28;20057;-50
2020/12/20 00:53:45;;;;;;;22.38;12.85;;;;;;;;;;5054113;28;20029;-50
2020/12/20 00:56:15;;;;;;;21.27;13.98;;;;;;;;;;5052811;28;20028;-50
2020/12/20 00:58:42;;;;;;;27.67;13.13;;;;;;;;;;5054030;28;20425;-49
2020/12/20 01:01:09;;;;;;;25.35;14.52;;;;;;;;;;5053689;28;20449;-50
2020/12/20 01:03:36;;;;;;;24.52;13.50;;;;;;;;;;5053642;28;20040;-49
2020/12/20 01:06:02;;;;;;;21.45;11.15;;;;;;;;;;5053779;28;20025;-50
2020/12/20 01:08:29;;;;;;;18.85;11.98;;;;;;;;;;5053864;28;20021;-50
2020/12/20 01:10:55;;;;;;;23.45;13.57;;;;;;;;;;5052639;28;20025;-50
2020/12/20 01:13:21;;;;;;;20.20;12.45;;;;;;;;;;5053706;28;20074;-50
2020/12/20 01:15:48;;;;;;;23.50;13.68;;;;;;;;;;5053644;28;20028;-50
2020/12/20 01:18:14;;;;;;;18.55;10.20;;;;;;;;;;5053744;28;20024;-50
2020/12/20 01:20:41;;;;;;;35.35;13.63;;;;;;;;;;5053391;28;20033;-51
2020/12/20 01:23:07;;;;;;;27.38;13.02;;;;;;;;;;5053426;28;20036;-51
2020/12/20 01:25:33;;;;;;;20.63;13.07;;;;;;;;;;5053609;28;20505;-50
2020/12/20 01:27:59;;;;;;;19.73;11.27;;;;;;;;;;5053465;28;20471;-50
2020/12/20 01:30:26;;;;;;;18.83;11.73;;;;;;;;;;5053302;28;20053;-50
2020/12/20 01:32:52;;;;;;;17.77;13.00;;;;;;;;;;5053449;28;20096;-50
2020/12/20 01:35:18;;;;;;;20.90;11.93;;;;;;;;;;5053226;28;20031;-50
2020/12/20 01:37:45;;;;;;;27.10;13.63;;;;;;;;;;5053166;28;20029;-50
2020/12/20 01:40:11;;;;;;;22.45;13.13;;;;;;;;;;5053273;28;20487;-49
2020/12/20 01:42:37;;;;;;;28.45;15.20;;;;;;;;;;5053012;28;20056;-50
2020/12/20 01:45:03;;;;;;;38.03;15.98;;;;;;;;;;5052961;28;20021;-50
2020/12/20 01:47:31;;;;;;;29.50;16.35;;;;;;;;;;5053148;28;20502;-50
2020/12/20 01:49:59;;;;;;;31.52;15.38;;;;;;;;;;5053139;28;20025;-49
2020/12/20 01:52:25;;;;;;;21.17;12.60;;;;;;;;;;5053052;28;20510;-49
2020/12/20 01:54:51;;;;;;;29.42;14.70;;;;;;;;;;5053003;28;20036;-49
2020/12/20 01:57:18;;;;;;;25.08;13.45;;;;;;;;;;5052920;28;20017;-49
2020/12/20 01:59:45;;;;;;;31.50;17.83;;;;;;;;;;5052836;28;20029;-50
2020/12/20 02:02:12;;;;;;;27.45;16.02;;;;;;;;;;5052660;28;20045;-50
2020/12/20 02:04:39;;;;;;;23.02;12.57;;;;;;;;;;5052887;28;20021;-50
2020/12/20 02:07:06;;;;;;;47.83;17.40;;;;;;;;;;5052769;28;20386;-50
2020/12/20 02:09:32;;;;;;;24.50;14.35;;;;;;;;;;5052661;28;20021;-50
2020/12/20 02:12:02;;;;;;;26.75;16.52;;;;;;;;;;5052756;28;20471;-49
2020/12/20 02:14:28;;;;;;;27.98;16.30;;;;;;;;;;5052419;28;20075;-50
2020/12/20 02:16:55;;;;;;;29.35;17.08;;;;;;;;;;5052382;28;20025;-50
2020/12/20 02:19:21;;;;;;;37.03;20.02;;;;;;;;;;5052390;28;20106;-50
2020/12/20 02:21:48;;;;;;;22.90;15.48;;;;;;;;;;5052413;28;20025;-50
2020/12/20 02:24:14;;;;;;;27.83;18.50;;;;;;;;;;5052238;28;20059;-50
2020/12/20 02:26:40;;;;;;;33.70;15.30;;;;;;;;;;5052290;28;20027;-49
2020/12/20 02:29:06;;;;;;;27.75;16.35;;;;;;;;;;5052171;28;20381;-50
2020/12/20 02:31:34;;;;;;;32.42;16.88;;;;;;;;;;5052421;28;20017;-50
2020/12/20 02:34:00;;;;;;;29.17;16.15;;;;;;;;;;5050981;28;20036;-50
2020/12/20 02:36:26;;;;;;;33.38;18.30;;;;;;;;;;5052260;28;20017;-49
2020/12/20 02:38:53;;;;;;;33.22;17.55;;;;;;;;;;5052398;28;20057;-49
2020/12/20 02:41:19;;;;;;;28.85;15.65;;;;;;;;;;5052371;28;20787;-49
2020/12/20 02:43:45;;;;;;;33.75;17.92;;;;;;;;;;5052068;28;20024;-49
2020/12/20 02:46:12;;;;;;;31.23;16.75;;;;;;;;;;5052080;28;20023;-49
2020/12/20 02:48:38;;;;;;;46.22;19.00;;;;;;;;;;5051398;28;20100;-49
2020/12/20 02:51:04;;;;;;;33.78;19.02;;;;;;;;;;5051929;28;20024;-49
2020/12/20 02:53:31;;;;;;;36.17;17.15;;;;;;;;;;5052007;28;20028;-49
2020/12/20 02:55:57;;;;;;;33.50;17.40;;;;;;;;;;5051821;28;20025;-48
2020/12/20 02:58:23;;;;;;;26.98;15.77;;;;;;;;;;5051741;28;20419;-49
2020/12/20 03:00:50;;;;;;;25.20;15.32;;;;;;;;;;5051595;28;20083;-48
2020/12/20 03:03:16;;;;;;;28.65;19.02;;;;;;;;;;5051715;28;20032;-49
2020/12/20 03:05:42;;;;;;;21.85;14.10;;;;;;;;;;5051720;28;20386;-49
2020/12/20 03:08:09;;;;;;;25.98;14.65;;;;;;;;;;5051712;28;20021;-49
2020/12/20 03:10:35;;;;;;;30.83;17.75;;;;;;;;;;5051575;28;20083;-48
2020/12/20 03:13:01;;;;;;;22.45;13.85;;;;;;;;;;5051566;28;20028;-48
2020/12/20 03:15:27;;;;;;;32.42;16.30;;;;;;;;;;5051479;28;20029;-49
2020/12/20 03:17:54;;;;;;;23.08;14.60;;;;;;;;;;5051641;28;20383;-49
2020/12/20 03:20:20;;;;;;;24.25;16.33;;;;;;;;;;5051597;28;20100;-49
2020/12/20 03:22:46;;;;;;;27.85;15.48;;;;;;;;;;5051456;28;20395;-49
2020/12/20 03:25:12;;;;;;;24.55;15.32;;;;;;;;;;5051486;28;20021;-49
2020/12/20 03:27:39;;;;;;;22.25;12.68;;;;;;;;;;5051608;28;20014;-48
2020/12/20 03:30:05;;;;;;;20.45;13.35;;;;;;;;;;5051721;28;20429;-48
2020/12/20 03:32:32;;;;;;;33.88;14.13;;;;;;;;;;5051240;28;20446;-49
2020/12/20 03:34:58;;;;;;;23.63;14.43;;;;;;;;;;5051522;28;20032;-49
2020/12/20 03:37:24;;;;;;;32.03;14.57;;;;;;;;;;5051288;28;20036;-48
2020/12/20 03:39:51;;;;;;;23.33;12.75;;;;;;;;;;5052672;28;20501;-49
2020/12/20 03:42:17;;;;;;;15.80;11.73;;;;;;;;;;5053040;28;20083;-49
2020/12/20 03:44:43;;;;;;;19.63;11.73;;;;;;;;;;5050980;28;20021;-49
2020/12/20 03:47:09;;;;;;;23.70;13.32;;;;;;;;;;5051842;28;20060;-50
2020/12/20 03:49:36;;;;;;;34.78;14.07;;;;;;;;;;5052693;28;20025;-49
2020/12/20 03:52:02;;;;;;;30.98;11.32;;;;;;;;;;5051290;28;20022;-49
2020/12/20 03:54:28;;;;;;;18.30;12.60;;;;;;;;;;5052568;28;20017;-49
2020/12/20 03:56:55;;;;;;;24.35;14.48;;;;;;;;;;5052407;28;20033;-49
2020/12/20 03:59:22;;;;;;;15.55;11.90;;;;;;;;;;5052545;28;20052;-50
2020/12/20 04:01:48;;;;;;;27.33;11.23;;;;;;;;;;5053400;28;20168;-49
2020/12/20 04:04:16;;;;;;;20.30;13.05;;;;;;;;;;5054770;28;20025;-49
2020/12/20 04:06:42;;;;;;;21.90;13.13;;;;;;;;;;5055646;28;20409;-49
2020/12/20 04:09:08;;;;;;;22.40;11.48;;;;;;;;;;5055015;28;20483;-49
2020/12/20 04:11:34;;;;;;;25.55;13.43;;;;;;;;;;5055607;28;20021;-49
2020/12/20 04:14:01;;;;;;;20.75;12.95;;;;;;;;;;5056643;28;20020;-50
2020/12/20 04:16:27;;;;;;;24.80;12.93;;;;;;;;;;5056440;28;20036;-50
2020/12/20 04:18:53;;;;;;;48.10;13.73;;;;;;;;;;5056379;28;20100;-49
2020/12/20 04:21:19;;;;;;;29.55;13.02;;;;;;;;;;5056290;28;20028;-49
2020/12/20 04:23:46;;;;;;;33.97;16.20;;;;;;;;;;5056353;28;20025;-50
2020/12/20 04:26:12;;;;;;;39.40;14.43;;;;;;;;;;5056193;28;20027;-48
2020/12/20 04:28:39;;;;;;;46.45;16.80;;;;;;;;;;5056474;28;20017;-48
2020/12/20 04:31:05;;;;;;;22.13;11.25;;;;;;;;;;5056124;28;20048;-48
2020/12/20 04:33:31;;;;;;;20.75;12.35;;;;;;;;;;5055835;28;20053;-48
2020/12/20 04:35:57;;;;;;;17.90;11.98;;;;;;;;;;5054790;28;20029;-49
2020/12/20 04:38:24;;;;;;;23.55;12.88;;;;;;;;;;5056134;28;20029;-52
2020/12/20 04:40:50;;;;;;;24.40;15.13;;;;;;;;;;5055754;28;20025;-52
2020/12/20 04:43:16;;;;;;;21.33;11.07;;;;;;;;;;5056047;28;20081;-50
2020/12/20 04:45:43;;;;;;;22.80;14.07;;;;;;;;;;5055866;28;20575;-50
2020/12/20 04:48:12;;;;;;;39.47;14.77;;;;;;;;;;5055806;28;20096;-49
2020/12/20 04:50:40;;;;;;;41.05;13.63;;;;;;;;;;5055958;28;20012;-48
2020/12/20 04:53:06;;;;;;;25.05;12.30;;;;;;;;;;5055984;28;20136;-49
2020/12/20 04:55:32;;;;;;;33.58;13.93;;;;;;;;;;5055529;28;20052;-49
2020/12/20 04:57:59;;;;;;;24.50;11.63;;;;;;;;;;5055745;28;20028;-49
2020/12/20 05:00:25;;;;;;;30.25;14.90;;;;;;;;;;5055445;28;20025;-48
2020/12/20 05:02:51;;;;;;;18.83;13.07;;;;;;;;;;5055124;28;20045;-53
2020/12/20 05:05:18;;;;;;;23.75;13.05;;;;;;;;;;5055388;28;20025;-49
2020/12/20 05:07:44;;;;;;;20.25;13.27;;;;;;;;;;5055549;28;20103;-49
2020/12/20 05:10:10;;;;;;;20.75;10.50;;;;;;;;;;5055825;28;20045;-49
2020/12/20 05:12:37;;;;;;;24.33;11.82;;;;;;;;;;5054764;28;20028;-49
2020/12/20 05:15:22;;;;;;;26.50;13.32;;;;;;;;;;5053644;28;20033;-49
2020/12/20 05:17:48;;;;;;;24.77;15.23;;;;;;;;;;5055108;28;20029;-48
2020/12/20 05:20:34;;;;;;;19.17;12.32;;;;;;;;;;5054700;28;20554;-53
2020/12/20 05:23:00;;;;;;;21.60;13.35;;;;;;;;;;5053597;28;20071;-52
2020/12/20 05:25:26;;;;;;;17.08;11.00;;;;;;;;;;5054834;28;20045;-52
2020/12/20 05:28:03;;;;;;;21.02;12.18;;;;;;;;;;5055424;28;20096;-52
2020/12/20 05:30:30;;;;;;;20.00;11.85;;;;;;;;;;5055408;28;20029;-52
2020/12/20 05:32:56;;;;;;;27.88;15.63;;;;;;;;;;5062776;28;20035;-47
2020/12/20 05:35:22;;;;;;;22.17;13.40;;;;;;;;;;5034985;28;20112;-53
2020/12/20 05:37:49;;;;;;;26.10;12.13;;;;;;;;;;5034649;28;20051;-51
2020/12/20 05:40:47;;;;;;;29.08;14.32;;;;;;;;;;5035061;28;20030;-52
2020/12/20 05:43:14;;;;;;;26.40;14.05;;;;;;;;;;5033360;28;20045;-49
2020/12/20 05:45:40;;;;;;;22.00;13.55;;;;;;;;;;5054708;28;20390;-50
2020/12/20 05:48:20;;;;;;;21.38;13.27;;;;;;;;;;5054541;28;20466;-49
2020/12/20 05:51:16;;;;;;;31.25;16.15;;;;;;;;;;5055023;28;20509;-50
2020/12/20 05:53:42;;;;;;;24.75;16.02;;;;;;;;;;5049895;28;20037;-52
2020/12/20 05:56:17;;;;;;;20.05;14.18;;;;;;;;;;5054983;28;20370;-51
2020/12/20 05:58:43;;;;;;;18.13;13.77;;;;;;;;;;5054614;28;20021;-49
2020/12/20 06:01:09;;;;;;;29.02;14.93;;;;;;;;;;5053051;28;20045;-52
2020/12/20 06:03:35;;;;;;;67.18;29.90;;;;;;;;;;5054336;28;20033;-51
2020/12/20 06:06:03;;;;;;;56.58;25.98;;;;;;;;;;5052562;28;20024;-48
2020/12/20 06:08:32;;;;;;;80.05;27.40;;;;;;;;;;5051820;28;20096;-49
2020/12/20 06:11:02;;;;;;;77.25;31.50;;;;;;;;;;5052543;28;20044;-49
2020/12/20 06:13:29;;;;;;;73.40;25.20;;;;;;;;;;5052591;28;20070;-49
2020/12/20 06:15:56;;;;;;;81.75;30.40;;;;;;;;;;5052518;28;20021;-49
2020/12/20 06:18:26;;;;;;;86.93;31.95;;;;;;;;;;5052533;28;20032;-50
2020/12/20 06:20:53;;;;;;;;;;;;;;;;;;5052744;28;20029;-49
2020/12/20 06:23:20;;;;;;;52.45;26.83;;;;;;;;;;5051808;28;19962;-47
2020/12/20 06:25:47;;;;;;;87.63;31.30;;;;;;;;;;5051608;28;20029;-47
2020/12/20 06:28:18;;;;;;;86.28;25.58;;;;;;;;;;5051912;28;20013;-47
2020/12/20 06:30:46;;;;;;;55.58;25.73;;;;;;;;;;5051531;28;20062;-48
2020/12/20 06:33:21;;;;;;;50.20;27.10;;;;;;;;;;5051907;28;20029;-48
2020/12/20 06:35:49;;;;;;;40.75;24.02;;;;;;;;;;5051911;28;20032;-48
2020/12/20 06:38:18;;;;;;;54.53;26.88;;;;;;;;;;5051699;28;20431;-49
2020/12/20 06:40:45;;;;;;;54.63;26.08;;;;;;;;;;5052068;28;20044;-49
2020/12/20 06:43:11;;;;;;;40.35;24.85;;;;;;;;;;5051969;28;20032;-49
2020/12/20 06:45:47;;;;;;;60.60;26.88;;;;;;;;;;5051959;28;20108;-49
2020/12/20 06:48:14;;;;;;;33.47;20.25;;;;;;;;;;5051842;28;20020;-49
2020/12/20 06:50:44;;;;;;;60.33;28.00;;;;;;;;;;5050466;28;20021;-49
2020/12/20 06:53:15;;;;;;;50.38;19.63;;;;;;;;;;5051888;28;20028;-49
2020/12/20 06:55:41;;;;;;;49.33;23.13;;;;;;;;;;5051990;28;20076;-49
2020/12/20 06:58:20;;;;;;;45.25;20.65;;;;;;;;;;5050720;28;20103;-49
2020/12/20 07:00:54;;;;;;;36.53;22.00;;;;;;;;;;5051451;28;20104;-49
2020/12/20 07:03:32;;;;;;;75.75;23.05;;;;;;;;;;5051634;28;20033;-48
2020/12/20 07:06:08;;;;;;;55.03;17.90;;;;;;;;;;5051758;28;20530;-50
2020/12/20 07:08:38;;;;;;;41.47;22.33;;;;;;;;;;5051562;28;20017;-47
2020/12/20 07:11:06;;;;;;;25.33;18.00;;;;;;;;;;5051905;28;20098;-49
2020/12/20 07:13:35;;;;;;;33.55;17.40;;;;;;;;;;5051895;28;20021;-49
2020/12/20 07:16:04;;;;;;;55.08;18.70;;;;;;;;;;5051218;28;20048;-49
2020/12/20 07:18:40;;;;;;;39.17;18.60;;;;;;;;;;5051643;28;20025;-48
2020/12/20 07:21:07;;;;;;;32.55;16.20;;;;;;;;;;5050256;28;20064;-50
2020/12/20 07:23:33;;;;;;;39.30;19.90;;;;;;;;;;5051525;28;20029;-48
2020/12/20 07:26:00;;;;;;;30.58;16.75;;;;;;;;;;5051492;28;20025;-48
2020/12/20 07:28:27;;;;;;;26.25;14.40;;;;;;;;;;5051517;28;20063;-47
2020/12/20 07:30:53;;;;;;;26.40;15.00;;;;;;;;;;5051592;28;20028;-48
2020/12/20 07:33:19;;;;;;;40.25;17.35;;;;;;;;;;5051504;28;20100;-48
2020/12/20 07:35:49;;;;;;;19.02;13.27;;;;;;;;;;5053605;28;20432;-49
2020/12/20 07:38:15;;;;;;;59.78;18.58;;;;;;;;;;5054339;28;20036;-48
2020/12/20 07:40:41;;;;;;;23.33;10.93;;;;;;;;;;5055474;28;20378;-49
2020/12/20 07:43:08;;;;;;;35.90;14.85;;;;;;;;;;5055417;28;20055;-49
2020/12/20 07:45:34;;;;;;;25.50;14.73;;;;;;;;;;5055212;28;20096;-49
2020/12/20 07:48:01;;;;;;;24.90;15.57;;;;;;;;;;5055315;28;20021;-46
2020/12/20 07:50:28;;;;;;;30.80;13.77;;;;;;;;;;5055287;28;20047;-48
2020/12/20 07:52:54;;;;;;;23.30;14.20;;;;;;;;;;5055077;28;20039;-48
2020/12/20 07:55:20;;;;;;;21.00;12.15;;;;;;;;;;5055184;28;20082;-48
2020/12/20 07:57:48;;;;;;;27.73;12.55;;;;;;;;;;5055107;28;20029;-47
2020/12/20 08:00:15;;;;;;;30.42;11.27;;;;;;;;;;5055039;28;20024;-48
2020/12/20 08:02:42;;;;;;;21.30;11.13;;;;;;;;;;5054456;28;20041;-48
2020/12/20 08:05:09;;;;;;;23.58;11.23;;;;;;;;;;5057024;28;20025;-49
2020/12/20 08:07:35;;;;;;;35.50;11.27;;;;;;;;;;5056335;28;20021;-48
2020/12/20 08:10:01;;;;;;;19.15;9.32;;;;;;;;;;5056845;28;20021;-48
2020/12/20 08:12:28;;;;;;;18.45;11.18;;;;;;;;;;5056452;28;20052;-49
2020/12/20 08:15:01;;;;;;;18.77;12.50;;;;;;;;;;5056533;28;20024;-48
2020/12/20 08:17:28;;;;;;;19.20;8.65;;;;;;;;;;5056959;28;20071;-49
2020/12/20 08:19:54;;;;;;;20.15;9.82;;;;;;;;;;5056992;28;20021;-48
2020/12/20 08:22:22;;;;;;;10.80;8.10;;;;;;;;;;5056191;28;20025;-48
2020/12/20 08:24:49;;;;;;;20.75;10.18;;;;;;;;;;5056157;28;20017;-48
2020/12/20 08:27:19;;;;;;;10.80;7.10;;;;;;;;;;5056629;28;20017;-48
2020/12/20 08:29:46;;;;;;;16.45;8.77;;;;;;;;;;5056233;28;20103;-48
2020/12/20 08:32:17;;;;;;;21.85;10.43;;;;;;;;;;5055999;28;20025;-48
2020/12/20 08:34:43;;;;;;;17.08;9.90;;;;;;;;;;5056554;28;20437;-48
2020/12/20 08:37:11;;;;;;;14.77;8.00;;;;;;;;;;5056085;28;20021;-48
2020/12/20 08:39:37;;;;;;;16.48;10.32;;;;;;;;;;5056338;28;20489;-49
2020/12/20 08:42:06;;;;;;;15.05;9.32;;;;;;;;;;5056179;28;20025;-48
2020/12/20 08:44:33;;;;;;;17.42;7.50;;;;;;;;;;5055825;28;20020;-48
2020/12/20 08:47:10;;;;;;;23.50;12.07;;;;;;;;;;5055439;28;20053;-48
2020/12/20 08:49:37;;;;;;;14.20;8.55;;;;;;;;;;5056008;28;20494;-48
2020/12/20 08:52:11;;;;;;;13.32;8.65;;;;;;;;;;5055885;28;20052;-48
2020/12/20 08:54:37;;;;;;;16.55;7.70;;;;;;;;;;5055678;28;20029;-49
2020/12/20 08:57:10;;;;;;;19.83;8.98;;;;;;;;;;5055759;28;20498;-49
2020/12/20 08:59:43;;;;;;;15.45;6.90;;;;;;;;;;5055803;28;20033;-49
2020/12/20 09:02:17;;;;;;;16.77;8.00;;;;;;;;;;5055535;28;20404;-49
2020/12/20 09:04:54;;;;;;;15.43;8.38;;;;;;;;;;5055823;28;20117;-48
2020/12/20 09:07:29;;;;;;;17.88;8.05;;;;;;;;;;5055433;28;20021;-48
2020/12/20 09:10:04;;;;;;;28.90;10.80;;;;;;;;;;5055916;28;20048;-48
2020/12/20 09:12:30;;;;;;;12.70;7.63;;;;;;;;;;5055096;28;20025;-48
2020/12/20 09:15:00;;;;;;;15.20;7.85;;;;;;;;;;5055210;28;20021;-49
2020/12/20 09:17:34;;;;;;;15.32;7.40;;;;;;;;;;5055748;28;20028;-49
2020/12/20 09:20:01;;;;;;;15.55;5.93;;;;;;;;;;5055245;28;20025;-49
2020/12/20 09:22:40;;;;;;;20.55;9.60;;;;;;;;;;5055246;28;20027;-48
2020/12/20 09:25:06;;;;;;;11.48;6.55;;;;;;;;;;5055266;28;20021;-47
2020/12/20 09:27:33;;;;;;;15.18;7.85;;;;;;;;;;5055626;28;20092;-49
2020/12/20 09:30:00;;;;;;;22.10;9.30;;;;;;;;;;5054775;28;20421;-49
2020/12/20 09:32:27;;;;;;;10.68;6.30;;;;;;;;;;5054918;28;20490;-49
2020/12/20 09:35:02;;;;;;;14.73;7.03;;;;;;;;;;5055353;28;20070;-48
2020/12/20 09:37:28;;;;;;;10.25;6.47;;;;;;;;;;5055274;28;20021;-48
2020/12/20 09:39:58;;;;;;;23.65;8.07;;;;;;;;;;5055226;28;20067;-49
2020/12/20 09:42:24;;;;;;;16.25;8.45;;;;;;;;;;5054865;28;20023;-49
2020/12/20 09:44:51;;;;;;;11.20;8.40;;;;;;;;;;5055001;28;20101;-49
2020/12/20 09:47:17;;;;;;;16.80;7.78;;;;;;;;;;5055038;28;20021;-49
2020/12/20 09:49:44;;;;;;;12.40;6.75;;;;;;;;;;5055067;28;20017;-49
2020/12/20 09:52:10;;;;;;;11.95;8.02;;;;;;;;;;5054429;28;20356;-49
2020/12/20 09:54:36;;;;;;;17.17;7.03;;;;;;;;;;5054691;28;20108;-48
2020/12/20 09:57:03;;;;;;;17.70;8.68;;;;;;;;;;5054977;28;20096;-49
2020/12/20 09:59:29;;;;;;;27.15;6.70;;;;;;;;;;5054685;28;20078;-49
2020/12/20 10:01:55;;;;;;;11.43;6.90;;;;;;;;;;5054425;28;20045;-49
2020/12/20 10:04:21;;;;;;;14.50;7.38;;;;;;;;;;5053739;28;20029;-50
2020/12/20 10:06:51;;;;;;;19.30;6.43;;;;;;;;;;5054430;28;20139;-46
2020/12/20 10:09:17;;;;;;;13.95;5.82;;;;;;;;;;5054315;28;20021;-46
2020/12/20 10:11:43;;;;;;;12.13;6.55;;;;;;;;;;5054549;28;20412;-47
2020/12/20 10:14:10;;;;;;;13.60;7.32;;;;;;;;;;5054299;28;20029;-47
2020/12/20 10:16:36;;;;;;;11.88;5.30;;;;;;;;;;5054544;28;20052;-48
2020/12/20 10:19:05;;;;;;;12.40;7.43;;;;;;;;;;5052902;28;20083;-47
2020/12/20 10:21:31;;;;;;;10.00;6.45;;;;;;;;;;5054424;28;20033;-48
2020/12/20 10:23:58;;;;;;;13.45;5.93;;;;;;;;;;5054398;28;20028;-47
2020/12/20 10:26:24;;;;;;;8.60;6.53;;;;;;;;;;5054052;28;20465;-47
2020/12/20 10:28:50;;;;;;;12.10;7.32;;;;;;;;;;5052875;28;20025;-47
2020/12/20 10:31:19;;;;;;;9.60;6.57;;;;;;;;;;5052372;28;20494;-48
2020/12/20 10:33:46;;;;;;;13.85;6.05;;;;;;;;;;5053303;28;20604;-47
2020/12/20 10:36:15;;;;;;;10.75;5.05;;;;;;;;;;5053784;28;20021;-48
2020/12/20 10:38:41;;;;;;;10.15;5.90;;;;;;;;;;5053922;28;20096;-49
2020/12/20 10:41:08;;;;;;;10.02;5.93;;;;;;;;;;5054056;28;20025;-48
2020/12/20 10:43:34;;;;;;;10.68;5.90;;;;;;;;;;5053250;28;20114;-48
2020/12/20 10:46:00;;;;;;;8.35;6.15;;;;;;;;;;5053512;28;20032;-48
2020/12/20 10:48:27;;;;;;;13.63;6.03;;;;;;;;;;5053969;28;20032;-48
2020/12/20 10:50:53;;;;;;;10.80;5.57;;;;;;;;;;5053904;28;20021;-49
2020/12/20 10:53:19;;;;;;;13.18;5.47;;;;;;;;;;5053471;28;20028;-48
2020/12/20 10:55:45;;;;;;;11.27;5.90;;;;;;;;;;5053262;28;20035;-48
2020/12/20 10:58:12;;;;;;;9.45;6.25;;;;;;;;;;5053506;28;20155;-47
2020/12/20 11:00:38;;;;;;;11.60;5.32;;;;;;;;;;5053521;28;20029;-48
2020/12/20 11:03:04;;;;;;;10.55;5.97;;;;;;;;;;5051686;28;20053;-47
2020/12/20 11:05:30;;;;;;;14.38;5.00;;;;;;;;;;5053310;28;20032;-47
2020/12/20 11:07:57;;;;;;;16.25;5.43;;;;;;;;;;5053754;28;20032;-47
2020/12/20 11:10:25;;;;;;;10.88;5.72;;;;;;;;;;5053319;28;20352;-49
2020/12/20 11:12:51;;;;;;;23.33;5.22;;;;;;;;;;5053496;28;20049;-51
2020/12/20 11:15:17;;;;;;;6.00;4.40;;;;;;;;;;5052976;28;20036;-49
2020/12/20 11:17:45;;;;;;;11.02;4.45;;;;;;;;;;5053248;28;20044;-49
2020/12/20 11:20:12;;;;;;;10.73;5.85;;;;;;;;;;5053277;28;20029;-48
2020/12/20 11:22:38;;;;;;;15.43;6.05;;;;;;;;;;5051941;28;20025;-49
2020/12/20 11:25:04;;;;;;;15.40;5.72;;;;;;;;;;5053458;28;20389;-49
2020/12/20 11:27:30;;;;;;;10.80;5.53;;;;;;;;;;5053599;28;20021;-48
2020/12/20 11:29:57;;;;;;;7.38;4.68;;;;;;;;;;5053480;28;20092;-48
2020/12/20 11:32:23;;;;;;;13.95;5.45;;;;;;;;;;5053049;28;20025;-48
2020/12/20 11:34:49;;;;;;;11.82;5.70;;;;;;;;;;5052941;28;20028;-49
2020/12/20 11:37:15;;;;;;;26.58;6.63;;;;;;;;;;5053003;28;20052;-48
2020/12/20 11:39:42;;;;;;;13.18;5.60;;;;;;;;;;5053055;28;20021;-48
2020/12/20 11:42:10;;;;;;;10.18;6.22;;;;;;;;;;5052998;28;20474;-47
2020/12/20 11:44:37;;;;;;;6.65;4.85;;;;;;;;;;5053274;28;20571;-47
2020/12/20 11:47:03;;;;;;;10.48;4.43;;;;;;;;;;5053220;28;20028;-48
2020/12/20 11:49:29;;;;;;;8.63;3.80;;;;;;;;;;5053081;28;20025;-48
2020/12/20 11:51:56;;;;;;;7.05;3.05;;;;;;;;;;5052967;28;20263;-48
2020/12/20 11:54:22;;;;;;;7.70;3.03;;;;;;;;;;5052842;28;20413;-48
2020/12/20 11:56:48;;;;;;;6.25;4.22;;;;;;;;;;5053105;28;20081;-47
2020/12/20 11:59:15;;;;;;;11.63;5.35;;;;;;;;;;5053275;28;20084;-48
2020/12/20 12:01:41;;;;;;;7.18;4.82;;;;;;;;;;5052447;28;20051;-48
2020/12/20 12:04:07;;;;;;;15.25;4.63;;;;;;;;;;5052475;28;20083;-48
2020/12/20 12:06:33;;;;;;;7.63;3.55;;;;;;;;;;5052244;28;20017;-48
2020/12/20 12:09:00;;;;;;;14.65;5.65;;;;;;;;;;5052914;28;20017;-47
2020/12/20 12:11:26;;;;;;;9.48;5.75;;;;;;;;;;5052880;28;20056;-49
2020/12/20 12:13:52;;;;;;;16.92;4.28;;;;;;;;;;5051382;28;20491;-48
2020/12/20 12:16:20;;;;;;;23.13;6.63;;;;;;;;;;5050862;28;20025;-47
2020/12/20 12:19:11;;;;;;;13.43;4.28;;;;;;;;;;5194488;22;20955;-54
2020/12/20 12:21:38;;;;;;;21.23;4.80;;;;;;;;;;5010816;28;20122;-48
2020/12/20 12:24:04;;;;;;;11.77;6.82;;;;;;;;;;5014725;28;20445;-50
2020/12/20 12:26:30;;;;;;;11.80;4.80;;;;;;;;;;5014957;28;20477;-48
2020/12/20 12:28:57;;;;;;;10.25;5.75;;;;;;;;;;5014967;28;20049;-48
2020/12/20 12:31:23;;;;;;;8.52;5.72;;;;;;;;;;5014684;28;20018;-48
2020/12/20 12:33:52;;;;;;;21.42;5.60;;;;;;;;;;5014843;28;20168;-50
2020/12/20 12:36:18;;;;;;;11.63;4.65;;;;;;;;;;5014523;28;20026;-48
2020/12/20 12:38:44;;;;;;;14.73;4.63;;;;;;;;;;5014733;28;20029;-47
2020/12/20 12:41:11;;;;;;;16.15;4.35;;;;;;;;;;5014647;28;20470;-47
2020/12/20 12:43:37;;;;;;;13.88;5.03;;;;;;;;;;5014581;28;20034;-48
2020/12/20 12:46:03;;;;;;;9.18;4.60;;;;;;;;;;5014515;28;20115;-50
2020/12/20 12:48:29;;;;;;;8.73;5.75;;;;;;;;;;5014597;28;20018;-50
2020/12/20 12:50:56;;;;;;;13.43;5.68;;;;;;;;;;5014354;28;20057;-55
2020/12/20 12:53:22;;;;;;;6.63;4.38;;;;;;;;;;5014473;28;20475;-50
2020/12/20 12:55:48;;;;;;;11.75;6.30;;;;;;;;;;5014247;28;20061;-51
2020/12/20 12:58:15;;;;;;;10.57;6.57;;;;;;;;;;5014281;28;20060;-51
2020/12/20 13:00:41;;;;;;;13.85;5.68;;;;;;;;;;5014233;28;20053;-48
2020/12/20 13:03:10;;;;;;;12.10;6.22;;;;;;;;;;5014236;28;20033;-51
2020/12/20 13:05:37;;;;;;;6.85;4.95;;;;;;;;;;5014014;28;20029;-51
2020/12/20 13:08:03;;;;;;;9.00;5.32;;;;;;;;;;5014044;28;20026;-49
2020/12/20 13:10:29;;;;;;;10.43;5.93;;;;;;;;;;5014161;28;20029;-50
2020/12/20 13:12:55;;;;;;;11.40;5.43;;;;;;;;;;5014043;28;20080;-49
2020/12/20 13:15:22;;;;;;;10.15;5.97;;;;;;;;;;5014218;28;20109;-50
2020/12/20 13:17:48;;;;;;;25.42;4.45;;;;;;;;;;5013993;28;20399;-53
2020/12/20 13:20:14;;;;;;;9.95;4.75;;;;;;;;;;5013967;28;20057;-50
2020/12/20 13:22:40;;;;;;;5.95;4.32;;;;;;;;;;5014256;28;20033;-49
2020/12/20 13:25:07;;;;;;;21.95;4.95;;;;;;;;;;5014058;28;20022;-46
2020/12/20 13:27:33;;;;;;;7.65;4.80;;;;;;;;;;5013750;28;20046;-48
2020/12/20 13:29:59;;;;;;;8.00;4.35;;;;;;;;;;5013774;28;20375;-49
2020/12/20 13:32:26;;;;;;;12.13;5.63;;;;;;;;;;5013566;28;20468;-49
2020/12/20 13:34:52;;;;;;;12.45;4.97;;;;;;;;;;5013567;28;20034;-49
2020/12/20 13:37:18;;;;;;;10.80;5.13;;;;;;;;;;5013539;28;20025;-47
2020/12/20 13:39:45;;;;;;;10.95;5.25;;;;;;;;;;5013342;28;20018;-46
2020/12/20 13:42:14;;;;;;;10.35;5.32;;;;;;;;;;5012183;28;20030;-49
2020/12/20 13:44:40;;;;;;;8.02;4.50;;;;;;;;;;5013318;28;20454;-49
2020/12/20 13:47:06;;;;;;;6.00;3.33;;;;;;;;;;5013362;28;20083;-48
2020/12/20 13:49:33;;;;;;;13.63;5.15;;;;;;;;;;5013241;28;20022;-51
2020/12/20 13:51:59;;;;;;;11.70;4.95;;;;;;;;;;5008748;28;20032;-52
2020/12/20 13:54:27;;;;;;;9.85;5.00;;;;;;;;;;4993730;28;20041;-51
2020/12/20 13:56:53;;;;;;;11.05;3.60;;;;;;;;;;4993552;28;20027;-51
2020/12/20 13:59:20;;;;;;;12.70;4.25;;;;;;;;;;4993659;28;20026;-52
2020/12/20 14:01:55;;;;;;;7.18;3.47;;;;;;;;;;4993568;28;20032;-47
2020/12/20 14:04:21;;;;;;;10.93;3.78;;;;;;;;;;4993360;28;20033;-50
2020/12/20 14:06:48;;;;;;;15.02;5.60;;;;;;;;;;4993594;28;20033;-47
2020/12/20 14:09:14;;;;;;;8.68;3.65;;;;;;;;;;4993695;28;20105;-50
2020/12/20 14:11:40;;;;;;;7.70;4.32;;;;;;;;;;4993481;28;20034;-49
2020/12/20 14:14:06;;;;;;;13.45;5.72;;;;;;;;;;4993546;28;20022;-50
2020/12/20 14:16:33;;;;;;;16.00;6.70;;;;;;;;;;4993358;28;20029;-50
2020/12/20 14:18:59;;;;;;;9.35;4.20;;;;;;;;;;4996399;28;20026;-49
2020/12/20 14:21:25;;;;;;;9.80;3.78;;;;;;;;;;5012965;28;20044;-49
2020/12/20 14:23:51;;;;;;;8.57;4.03;;;;;;;;;;5012725;28;20064;-49
2020/12/20 14:26:18;;;;;;;13.23;4.93;;;;;;;;;;5011479;28;20018;-49